Las Lenas/Los Molles, Argentina
Current Conditions -  °F | °C
As of 10:00 PM on Saturday 22 Nov 2014 (Local Time) from SCIC Reporting Station
Clear Clear  
Wind Chill: 66°   Ceiling: Unl
Heat Index: 66°   Visibility: 6mi
Dew Point: 48°   Wind: 8mph
Humidity: 52%   Direction: 270°W
Pressure: 29.94"   Gusts: NA
Location:  34.97°S, 68.65°W
Report Text: SCIC 230100Z AUTO 27007KT 9999 NCD 19/09 Q1014
Loading
Personal Weather Stations






























Interactive Weather Map New forecast layout! Learn more

10-Day Weather Forecast

Advertisements
Track Severe Weather on mobile